Time;durP1;ratioP1;P1;durP2;ratioP2;P2;SDS_P1;SDS_P2;PMS_P1;PMS_P2;Temp;Humidity;BMP_temperature;BMP_pressure;BME280_temperature;BME280_humidity;BME280_pressure;Samples;Min_cycle;Max_cycle;Signal;HPM_P1;HPM_P2
2024/02/04 00:04:32;;;;;;;8.27;5.50;;;;;;;;;;10365085;28;20385;-60
2024/02/04 00:09:33;;;;;;;7.97;5.68;;;;;;;;;;10365982;28;20149;-61
2024/02/04 00:14:33;;;;;;;13.27;5.45;;;;;;;;;;10365811;28;20416;-60
2024/02/04 00:19:34;;;;;;;7.95;5.32;;;;;;;;;;10365167;28;20405;-60
2024/02/04 00:24:34;;;;;;;9.02;5.25;;;;;;;;;;10364225;28;20049;-60
2024/02/04 00:29:35;;;;;;;9.57;6.38;;;;;;;;;;10372861;28;20021;-60
2024/02/04 00:34:35;;;;;;;8.63;5.13;;;;;;;;;;10372350;28;20045;-61
2024/02/04 00:39:36;;;;;;;7.50;5.20;;;;;;;;;;10372498;28;20046;-63
2024/02/04 00:44:37;;;;;;;9.10;5.70;;;;;;;;;;10372677;28;20030;-64
2024/02/04 00:49:37;;;;;;;8.88;4.93;;;;;;;;;;10371830;28;20026;-60
2024/02/04 00:54:38;;;;;;;10.18;5.85;;;;;;;;;;10372472;28;20021;-60
2024/02/04 00:59:38;;;;;;;10.32;5.47;;;;;;;;;;10371515;28;20026;-60
2024/02/04 01:04:39;;;;;;;8.63;6.18;;;;;;;;;;10371073;28;20041;-63
2024/02/04 01:09:39;;;;;;;8.85;6.25;;;;;;;;;;10371576;28;20041;-60
2024/02/04 01:14:40;;;;;;;7.00;5.35;;;;;;;;;;10371298;28;20418;-60
2024/02/04 01:19:40;;;;;;;8.73;5.90;;;;;;;;;;10370619;28;20034;-61
2024/02/04 01:24:41;;;;;;;8.30;5.72;;;;;;;;;;10371720;28;20037;-60
2024/02/04 01:29:41;;;;;;;9.55;5.35;;;;;;;;;;10370042;28;20385;-60
2024/02/04 01:34:42;;;;;;;12.75;5.85;;;;;;;;;;10369911;28;20327;-61
2024/02/04 01:39:43;;;;;;;9.68;6.10;;;;;;;;;;10368834;28;20405;-60
2024/02/04 01:44:43;;;;;;;8.45;5.55;;;;;;;;;;10370184;28;20422;-61
2024/02/04 01:49:44;;;;;;;10.07;5.78;;;;;;;;;;10369974;28;20493;-60
2024/02/04 01:54:45;;;;;;;10.27;5.97;;;;;;;;;;10368893;28;20397;-61
2024/02/04 01:59:48;;;;;;;7.22;5.20;;;;;;;;;;10369330;28;20057;-62
2024/02/04 02:04:50;;;;;;;9.95;6.13;;;;;;;;;;10355694;28;20058;-60
2024/02/04 02:09:51;;;;;;;8.25;6.47;;;;;;;;;;10356393;28;20481;-60
2024/02/04 02:15:24;;;;;;;9.80;6.13;;;;;;;;;;10367920;28;20029;-60
2024/02/04 02:21:09;;;;;;;8.55;6.10;;;;;;;;;;10354043;28;20037;-65
2024/02/04 02:26:10;;;;;;;10.18;5.40;;;;;;;;;;10368033;28;20149;-61
2024/02/04 02:31:10;;;;;;;9.23;5.47;;;;;;;;;;10366709;28;20038;-61
2024/02/04 02:36:18;;;;;;;8.43;5.30;;;;;;;;;;10367501;28;20045;-60
2024/02/04 02:41:21;;;;;;;8.27;5.82;;;;;;;;;;10350594;28;20080;-66
2024/02/04 02:46:22;;;;;;;9.95;5.93;;;;;;;;;;10366932;28;20026;-65
2024/02/04 02:51:23;;;;;;;13.18;5.68;;;;;;;;;;10366413;28;20319;-63
2024/02/04 02:56:24;;;;;;;9.00;5.97;;;;;;;;;;10367816;28;20315;-65
2024/02/04 03:01:24;;;;;;;12.85;5.82;;;;;;;;;;10368112;28;20619;-67
2024/02/04 03:06:25;;;;;;;9.15;6.18;;;;;;;;;;10366837;28;20481;-67
2024/02/04 03:11:25;;;;;;;9.57;5.50;;;;;;;;;;10367097;28;20473;-66
2024/02/04 03:16:26;;;;;;;8.40;5.75;;;;;;;;;;10366012;28;20033;-61
2024/02/04 03:21:26;;;;;;;7.18;4.95;;;;;;;;;;10365999;28;20080;-60
2024/02/04 03:26:27;;;;;;;10.35;5.65;;;;;;;;;;10365293;28;20028;-60
2024/02/04 03:31:28;;;;;;;8.68;5.93;;;;;;;;;;10365667;28;20037;-61
2024/02/04 03:36:30;;;;;;;8.98;5.75;;;;;;;;;;10365279;28;20050;-69
2024/02/04 03:41:31;;;;;;;7.78;5.45;;;;;;;;;;10365374;28;20065;-60
2024/02/04 03:46:31;;;;;;;9.23;6.55;;;;;;;;;;10350402;28;20026;-61
2024/02/04 03:51:32;;;;;;;8.45;5.75;;;;;;;;;;10341115;28;20481;-60
2024/02/04 03:56:34;;;;;;;9.25;6.00;;;;;;;;;;10328830;28;20058;-61
2024/02/04 04:01:35;;;;;;;10.68;5.85;;;;;;;;;;10348030;28;20100;-60
2024/02/04 04:06:35;;;;;;;9.80;6.00;;;;;;;;;;10365967;28;20083;-62
2024/02/04 04:11:36;;;;;;;8.25;5.68;;;;;;;;;;10353609;28;20062;-61
2024/02/04 04:16:37;;;;;;;10.45;6.30;;;;;;;;;;10353747;28;20034;-60
2024/02/04 04:21:38;;;;;;;6.95;5.47;;;;;;;;;;10353820;28;20080;-61
2024/02/04 04:26:38;;;;;;;8.35;5.70;;;;;;;;;;10347590;28;20087;-61
2024/02/04 04:31:39;;;;;;;10.25;5.72;;;;;;;;;;10377651;28;20022;-61
2024/02/04 04:36:39;;;;;;;8.77;6.07;;;;;;;;;;10378483;28;20042;-60
2024/02/04 04:41:43;;;;;;;6.90;5.60;;;;;;;;;;10377472;28;20555;-61
2024/02/04 04:46:44;;;;;;;8.48;5.50;;;;;;;;;;10377227;28;20034;-61
2024/02/04 04:51:47;;;;;;;6.95;5.25;;;;;;;;;;10377992;28;20029;-60
2024/02/04 04:56:48;;;;;;;6.20;5.57;;;;;;;;;;10376865;28;20026;-60
2024/02/04 05:01:49;;;;;;;8.18;5.35;;;;;;;;;;10377576;28;20060;-61
2024/02/04 05:06:49;;;;;;;7.97;5.15;;;;;;;;;;10377027;28;20405;-61
2024/02/04 05:11:50;;;;;;;8.00;5.88;;;;;;;;;;10374547;28;20026;-61
2024/02/04 05:16:50;;;;;;;9.35;5.10;;;;;;;;;;10371150;28;20030;-60
2024/02/04 05:21:51;;;;;;;7.25;5.95;;;;;;;;;;10371096;28;20109;-60
2024/02/04 05:26:51;;;;;;;7.18;5.70;;;;;;;;;;10370263;28;20033;-61
2024/02/04 05:31:52;;;;;;;8.23;5.22;;;;;;;;;;10369239;28;20083;-61
2024/02/04 05:36:53;;;;;;;8.52;5.57;;;;;;;;;;10369908;28;20054;-61
2024/02/04 05:41:53;;;;;;;8.45;5.80;;;;;;;;;;10370255;28;20021;-60
2024/02/04 05:46:54;;;;;;;7.40;5.07;;;;;;;;;;10370437;28;20029;-61
2024/02/04 05:51:54;;;;;;;6.68;5.07;;;;;;;;;;10369131;28;20022;-60
2024/02/04 05:56:55;;;;;;;7.25;5.57;;;;;;;;;;10369194;28;20181;-61
2024/02/04 06:01:55;;;;;;;12.90;5.60;;;;;;;;;;10368767;28;20030;-61
2024/02/04 06:06:56;;;;;;;6.97;5.25;;;;;;;;;;10368436;28;20486;-61
2024/02/04 06:11:56;;;;;;;7.05;5.43;;;;;;;;;;10368904;28;20038;-61
2024/02/04 06:16:57;;;;;;;7.57;5.20;;;;;;;;;;10368767;28;20034;-61
2024/02/04 06:21:58;;;;;;;8.05;5.30;;;;;;;;;;10355703;28;20034;-61
2024/02/04 06:26:58;;;;;;;6.20;4.65;;;;;;;;;;10355769;28;20434;-61
2024/02/04 06:31:59;;;;;;;7.70;5.00;;;;;;;;;;10367016;28;20486;-61
2024/02/04 06:36:59;;;;;;;5.90;4.57;;;;;;;;;;10366849;28;20493;-60
2024/02/04 06:42:00;;;;;;;8.45;5.35;;;;;;;;;;10367094;28;20029;-61
2024/02/04 06:47:01;;;;;;;8.02;5.50;;;;;;;;;;10366693;28;20030;-60
2024/02/04 06:52:01;;;;;;;8.00;6.00;;;;;;;;;;10366658;28;20034;-61
2024/02/04 06:57:02;;;;;;;8.23;5.47;;;;;;;;;;10367065;28;20034;-61
2024/02/04 07:02:03;;;;;;;4.85;4.38;;;;;;;;;;10364952;28;20065;-65
2024/02/04 07:07:03;;;;;;;7.20;5.22;;;;;;;;;;10363939;28;20406;-63
2024/02/04 07:12:05;;;;;;;5.43;4.75;;;;;;;;;;10366314;28;20022;-65
2024/02/04 07:17:05;;;;;;;5.65;4.88;;;;;;;;;;10366754;28;20605;-62
2024/02/04 07:22:06;;;;;;;6.57;4.93;;;;;;;;;;10365749;28;20025;-63
2024/02/04 07:27:07;;;;;;;6.93;4.78;;;;;;;;;;10353052;28;20034;-63
2024/02/04 07:32:07;;;;;;;7.00;5.32;;;;;;;;;;10366200;28;20381;-61
2024/02/04 07:37:08;;;;;;;10.77;7.68;;;;;;;;;;10356198;28;20494;-62
2024/02/04 07:42:09;;;;;;;11.50;7.18;;;;;;;;;;10360916;28;20113;-62
2024/02/04 07:47:09;;;;;;;12.32;7.45;;;;;;;;;;10363425;28;20038;-61
2024/02/04 07:52:10;;;;;;;8.73;7.28;;;;;;;;;;10365205;28;20029;-60
2024/02/04 07:57:10;;;;;;;9.35;7.40;;;;;;;;;;10365756;28;20385;-64
2024/02/04 08:02:11;;;;;;;9.63;7.53;;;;;;;;;;10365237;28;20033;-63
2024/02/04 08:07:12;;;;;;;9.60;7.35;;;;;;;;;;10364358;28;20416;-64
2024/02/04 08:12:12;;;;;;;11.13;7.30;;;;;;;;;;10364102;28;20024;-61
2024/02/04 08:17:13;;;;;;;8.15;7.05;;;;;;;;;;10362472;28;20041;-61
2024/02/04 08:22:14;;;;;;;9.82;7.55;;;;;;;;;;10364355;28;20025;-63
2024/02/04 08:27:17;;;;;;;10.25;7.30;;;;;;;;;;10365371;28;20083;-64
2024/02/04 08:32:18;;;;;;;9.15;6.80;;;;;;;;;;10365296;28;20076;-62
2024/02/04 08:37:19;;;;;;;8.32;6.97;;;;;;;;;;10366426;28;20064;-63
2024/02/04 08:42:20;;;;;;;10.13;6.97;;;;;;;;;;10367463;28;20040;-62
2024/02/04 08:47:21;;;;;;;9.30;6.88;;;;;;;;;;10366475;28;20624;-61
2024/02/04 08:52:21;;;;;;;8.68;6.93;;;;;;;;;;10370602;28;20444;-62
2024/02/04 08:57:22;;;;;;;8.10;6.93;;;;;;;;;;10371351;28;20388;-61
2024/02/04 09:02:22;;;;;;;14.02;7.78;;;;;;;;;;10364580;28;20022;-67
2024/02/04 09:07:23;;;;;;;11.70;8.52;;;;;;;;;;10365021;28;20025;-68
2024/02/04 09:12:24;;;;;;;12.07;8.73;;;;;;;;;;10372190;28;20041;-68
2024/02/04 09:17:24;;;;;;;14.13;9.55;;;;;;;;;;10372280;28;20017;-65
2024/02/04 09:22:25;;;;;;;14.55;9.13;;;;;;;;;;10371612;28;20648;-68
2024/02/04 09:27:26;;;;;;;13.60;9.05;;;;;;;;;;10375411;28;20429;-68
2024/02/04 09:32:26;;;;;;;12.38;8.77;;;;;;;;;;10360927;28;20081;-68
2024/02/04 09:37:27;;;;;;;12.18;8.98;;;;;;;;;;10364187;28;20077;-68
2024/02/04 09:42:29;;;;;;;14.35;9.45;;;;;;;;;;10359854;28;57855;-68
2024/02/04 09:47:31;;;;;;;11.68;8.30;;;;;;;;;;10317528;28;62401;-68
2024/02/04 09:52:34;;;;;;;10.65;8.27;;;;;;;;;;10314802;28;20050;-64
2024/02/04 09:57:35;;;;;;;9.88;7.93;;;;;;;;;;10323004;28;20041;-63
2024/02/04 10:02:36;;;;;;;14.50;8.00;;;;;;;;;;10324199;28;20398;-62
2024/02/04 10:07:37;;;;;;;10.38;7.63;;;;;;;;;;10343579;28;20031;-62
2024/02/04 10:12:40;;;;;;;15.50;8.80;;;;;;;;;;10322198;28;20018;-68
2024/02/04 10:17:47;;;;;;;12.88;8.13;;;;;;;;;;10323268;28;20033;-62
2024/02/04 10:22:49;;;;;;;12.73;8.15;;;;;;;;;;10316859;28;20470;-66
2024/02/04 10:27:50;;;;;;;12.75;8.65;;;;;;;;;;10317725;28;20026;-63
2024/02/04 10:32:52;;;;;;;13.20;8.32;;;;;;;;;;10325267;28;20034;-65
2024/02/04 10:37:53;;;;;;;9.73;7.28;;;;;;;;;;10322380;28;20050;-63
2024/02/04 10:43:04;;;;;;;10.50;7.75;;;;;;;;;;10308631;28;20029;-64
2024/02/04 10:48:07;;;;;;;12.45;7.35;;;;;;;;;;10311242;28;20030;-67
2024/02/04 10:53:16;;;;;;;11.10;7.82;;;;;;;;;;10330742;28;20038;-68
2024/02/04 10:58:18;;;;;;;13.80;7.55;;;;;;;;;;10324052;28;20026;-67
2024/02/04 11:03:21;;;;;;;14.90;7.35;;;;;;;;;;10324383;28;20529;-62
2024/02/04 11:08:22;;;;;;;10.60;7.03;;;;;;;;;;10324635;28;20034;-62
2024/02/04 11:13:23;;;;;;;12.35;7.28;;;;;;;;;;10323794;28;20061;-61
2024/02/04 11:19:03;;;;;;;10.18;7.10;;;;;;;;;;10312615;28;20022;-63
2024/02/04 11:24:33;;;;;;;12.63;8.05;;;;;;;;;;10302763;28;20122;-61
2024/02/04 11:29:35;;;;;;;17.83;8.27;;;;;;;;;;10317731;28;20015;-61
2024/02/04 11:34:36;;;;;;;10.75;7.30;;;;;;;;;;10309253;28;20046;-61
2024/02/04 11:39:47;;;;;;;11.60;7.28;;;;;;;;;;10323273;23;20084;-61
2024/02/04 11:44:48;;;;;;;10.45;7.63;;;;;;;;;;10338657;28;20038;-60
2024/02/04 11:49:56;;;;;;;9.90;7.40;;;;;;;;;;10318997;28;20027;-61
2024/02/04 11:54:56;;;;;;;10.57;7.22;;;;;;;;;;10311820;28;20038;-61
2024/02/04 11:59:58;;;;;;;11.15;7.72;;;;;;;;;;10320716;28;20077;-61
2024/02/04 12:05:00;;;;;;;13.18;7.47;;;;;;;;;;10317284;28;20030;-61
2024/02/04 12:10:00;;;;;;;12.02;7.97;;;;;;;;;;10322422;28;20046;-61
2024/02/04 12:15:02;;;;;;;13.35;8.10;;;;;;;;;;10317426;28;20027;-62
2024/02/04 12:20:05;;;;;;;10.32;7.88;;;;;;;;;;10321811;28;20060;-61
2024/02/04 12:25:06;;;;;;;11.38;7.47;;;;;;;;;;10338950;28;20041;-61
2024/02/04 12:30:08;;;;;;;11.05;7.90;;;;;;;;;;10325937;28;20548;-61
2024/02/04 12:35:13;;;;;;;10.50;7.35;;;;;;;;;;10319685;28;20033;-61
2024/02/04 12:40:30;;;;;;;11.98;7.90;;;;;;;;;;10318136;28;20149;-61
2024/02/04 12:45:31;;;;;;;12.07;7.50;;;;;;;;;;10305431;28;20482;-61
2024/02/04 12:50:33;;;;;;;10.95;8.13;;;;;;;;;;10305292;28;20073;-60
2024/02/04 12:55:35;;;;;;;12.77;8.65;;;;;;;;;;10312971;28;20030;-60
2024/02/04 13:00:37;;;;;;;12.55;8.20;;;;;;;;;;10327269;28;20398;-60
2024/02/04 13:05:38;;;;;;;15.18;8.27;;;;;;;;;;10327466;28;20491;-60
2024/02/04 13:10:40;;;;;;;14.70;8.27;;;;;;;;;;10313464;28;20057;-60
2024/02/04 13:15:43;;;;;;;9.75;7.97;;;;;;;;;;10319672;28;20332;-60
2024/02/04 13:20:45;;;;;;;10.65;7.90;;;;;;;;;;10316912;28;20041;-60
2024/02/04 13:25:47;;;;;;;9.70;7.68;;;;;;;;;;10321982;28;20397;-60
2024/02/04 13:30:47;;;;;;;10.32;7.82;;;;;;;;;;10314944;28;20035;-61
2024/02/04 13:35:48;;;;;;;12.43;8.20;;;;;;;;;;10318993;28;20038;-61
2024/02/04 13:40:49;;;;;;;13.63;8.68;;;;;;;;;;10308167;28;20109;-61
2024/02/04 13:45:50;;;;;;;13.38;7.78;;;;;;;;;;10319525;28;20038;-61
2024/02/04 13:50:50;;;;;;;14.73;8.27;;;;;;;;;;10325119;28;20033;-61
2024/02/04 13:55:51;;;;;;;10.85;7.57;;;;;;;;;;10312366;28;20029;-61
2024/02/04 14:00:52;;;;;;;15.10;8.30;;;;;;;;;;10326144;28;20026;-61
2024/02/04 14:05:55;;;;;;;17.52;8.68;;;;;;;;;;10314226;28;20623;-61
2024/02/04 14:10:55;;;;;;;13.27;8.20;;;;;;;;;;10322370;28;20482;-60
2024/02/04 14:15:56;;;;;;;19.00;9.20;;;;;;;;;;10313753;28;20285;-61
2024/02/04 14:20:56;;;;;;;12.40;8.50;;;;;;;;;;10296392;28;20051;-60
2024/02/04 14:25:57;;;;;;;10.35;8.23;;;;;;;;;;10297063;28;20034;-60
2024/02/04 14:30:58;;;;;;;15.90;8.65;;;;;;;;;;10297888;28;20167;-61
2024/02/04 14:36:00;;;;;;;14.60;8.63;;;;;;;;;;10297457;28;20054;-61
2024/02/04 14:41:00;;;;;;;12.50;8.65;;;;;;;;;;10297195;28;20053;-61
2024/02/04 14:46:01;;;;;;;12.32;8.77;;;;;;;;;;10297183;28;20030;-61
2024/02/04 14:51:02;;;;;;;11.55;8.82;;;;;;;;;;10316795;28;20041;-61
2024/02/04 14:56:02;;;;;;;13.35;8.68;;;;;;;;;;10324918;28;20027;-61
2024/02/04 15:01:03;;;;;;;17.52;8.85;;;;;;;;;;10294606;28;20073;-61
2024/02/04 15:06:04;;;;;;;12.50;8.85;;;;;;;;;;10314973;28;20049;-61
2024/02/04 15:11:05;;;;;;;10.45;8.55;;;;;;;;;;10316572;28;20113;-61
2024/02/04 15:16:07;;;;;;;11.23;8.35;;;;;;;;;;10321980;28;20030;-61
2024/02/04 15:21:08;;;;;;;12.93;8.88;;;;;;;;;;10322955;28;20066;-61
2024/02/04 15:26:10;;;;;;;11.23;8.68;;;;;;;;;;10321124;28;20096;-61
2024/02/04 15:31:12;;;;;;;13.57;8.48;;;;;;;;;;10316612;28;20054;-60
2024/02/04 15:36:12;;;;;;;10.98;8.98;;;;;;;;;;10323269;28;20038;-60
2024/02/04 15:41:13;;;;;;;10.98;8.13;;;;;;;;;;10323763;28;20030;-60
2024/02/04 15:46:17;;;;;;;15.18;9.52;;;;;;;;;;10324155;28;20352;-60
2024/02/04 15:51:17;;;;;;;11.73;8.80;;;;;;;;;;10322483;28;20023;-60
2024/02/04 15:56:23;;;;;;;11.18;9.07;;;;;;;;;;10316717;28;20061;-60
2024/02/04 16:01:25;;;;;;;15.93;9.52;;;;;;;;;;10314613;28;20041;-60
2024/02/04 16:06:26;;;;;;;12.25;9.05;;;;;;;;;;10307136;28;20121;-59
2024/02/04 16:11:39;;;;;;;12.88;9.45;;;;;;;;;;10308732;28;20034;-60
2024/02/04 16:16:45;;;;;;;12.55;9.63;;;;;;;;;;10312343;28;20069;-60
2024/02/04 16:21:45;;;;;;;13.45;9.48;;;;;;;;;;10320433;28;20039;-60
2024/02/04 16:26:46;;;;;;;15.90;10.15;;;;;;;;;;10306352;28;20031;-60
2024/02/04 16:31:46;;;;;;;12.18;9.65;;;;;;;;;;10303632;28;20387;-60
2024/02/04 16:36:48;;;;;;;13.60;9.50;;;;;;;;;;10314069;28;20047;-60
2024/02/04 16:41:48;;;;;;;14.55;9.55;;;;;;;;;;10322734;28;20057;-60
2024/02/04 16:46:49;;;;;;;16.15;11.07;;;;;;;;;;10320052;28;20085;-62
2024/02/04 16:51:50;;;;;;;13.18;10.48;;;;;;;;;;10320314;28;20042;-60
2024/02/04 16:56:50;;;;;;;12.98;10.05;;;;;;;;;;10322906;28;20026;-60
2024/02/04 17:01:51;;;;;;;14.68;10.32;;;;;;;;;;10316808;28;20053;-61
2024/02/04 17:06:52;;;;;;;16.88;10.57;;;;;;;;;;10314312;28;20035;-59
2024/02/04 17:11:54;;;;;;;15.48;10.77;;;;;;;;;;10330259;28;20113;-61
2024/02/04 17:17:13;;;;;;;16.48;11.52;;;;;;;;;;10329280;28;20018;-60
2024/02/04 17:22:21;;;;;;;14.52;10.75;;;;;;;;;;10320510;28;20027;-60
2024/02/04 17:27:24;;;;;;;13.33;10.77;;;;;;;;;;10327104;28;20026;-63
2024/02/04 17:32:25;;;;;;;15.15;11.18;;;;;;;;;;10323487;28;20105;-59
2024/02/04 17:37:26;;;;;;;14.65;10.35;;;;;;;;;;10328271;28;20056;-60
2024/02/04 17:42:28;;;;;;;13.98;10.52;;;;;;;;;;10322634;28;20089;-61
2024/02/04 17:47:29;;;;;;;15.60;12.13;;;;;;;;;;10295426;28;20081;-60
2024/02/04 17:52:30;;;;;;;13.57;10.30;;;;;;;;;;10315594;28;20185;-60
2024/02/04 17:57:30;;;;;;;15.05;10.85;;;;;;;;;;10307749;28;20057;-60
2024/02/04 18:02:33;;;;;;;15.15;10.50;;;;;;;;;;10305168;28;20023;-60
2024/02/04 18:07:34;;;;;;;12.55;10.27;;;;;;;;;;10310760;28;20035;-60
2024/02/04 18:12:35;;;;;;;12.85;10.40;;;;;;;;;;10304895;28;20860;-60
2024/02/04 18:17:35;;;;;;;18.90;12.13;;;;;;;;;;10310853;28;20034;-60
2024/02/04 18:22:37;;;;;;;14.35;11.18;;;;;;;;;;10317040;28;20430;-60
2024/02/04 18:27:40;;;;;;;16.63;11.77;;;;;;;;;;10315845;28;20037;-60
2024/02/04 18:32:40;;;;;;;18.65;12.00;;;;;;;;;;10320985;28;20500;-58
2024/02/04 18:37:41;;;;;;;15.35;11.73;;;;;;;;;;10323355;28;20047;-60
2024/02/04 18:42:41;;;;;;;17.77;11.68;;;;;;;;;;10320918;28;20086;-61
2024/02/04 18:47:42;;;;;;;17.65;11.40;;;;;;;;;;10311118;28;20031;-60
2024/02/04 18:52:43;;;;;;;14.23;11.25;;;;;;;;;;10316964;28;20026;-61
2024/02/04 18:57:43;;;;;;;17.70;11.73;;;;;;;;;;10318040;28;20037;-59
2024/02/04 19:02:44;;;;;;;18.92;12.65;;;;;;;;;;10325342;28;20026;-60
2024/02/04 19:07:44;;;;;;;16.88;12.20;;;;;;;;;;10322230;28;20434;-60
2024/02/04 19:12:46;;;;;;;17.98;12.20;;;;;;;;;;10324642;28;20438;-61
2024/02/04 19:17:47;;;;;;;17.77;12.45;;;;;;;;;;10324601;28;20034;-60
2024/02/04 19:22:48;;;;;;;26.23;13.32;;;;;;;;;;10313208;28;20108;-60
2024/02/04 19:27:52;;;;;;;19.48;12.88;;;;;;;;;;10325168;28;20077;-61
2024/02/04 19:32:54;;;;;;;18.63;13.38;;;;;;;;;;10323971;28;20445;-61
2024/02/04 19:37:55;;;;;;;22.58;13.65;;;;;;;;;;10324485;28;20050;-60
2024/02/04 19:42:55;;;;;;;19.42;13.18;;;;;;;;;;10317855;28;20035;-61
2024/02/04 19:47:56;;;;;;;20.33;13.88;;;;;;;;;;10315097;28;20042;-60
2024/02/04 19:52:57;;;;;;;19.02;13.98;;;;;;;;;;10312152;28;20031;-60
2024/02/04 19:57:59;;;;;;;17.63;13.15;;;;;;;;;;10313599;28;20097;-61
2024/02/04 20:02:59;;;;;;;19.73;13.02;;;;;;;;;;10320635;28;20034;-58
2024/02/04 20:08:00;;;;;;;18.77;12.40;;;;;;;;;;10320717;28;20034;-58
2024/02/04 20:13:02;;;;;;;18.70;14.18;;;;;;;;;;10320406;28;20041;-61
2024/02/04 20:18:03;;;;;;;18.05;13.32;;;;;;;;;;10314974;28;20038;-60
2024/02/04 20:23:03;;;;;;;20.00;13.05;;;;;;;;;;10295809;28;20113;-58
2024/02/04 20:28:04;;;;;;;26.42;13.55;;;;;;;;;;10315631;28;20023;-58
2024/02/04 20:33:07;;;;;;;21.85;12.88;;;;;;;;;;10314803;28;20402;-57
2024/02/04 20:38:08;;;;;;;17.48;12.38;;;;;;;;;;10326235;28;20069;-58
2024/02/04 20:43:08;;;;;;;24.40;14.23;;;;;;;;;;10322806;28;20501;-57
2024/02/04 20:48:09;;;;;;;21.25;12.63;;;;;;;;;;10325070;28;20034;-57
2024/02/04 20:53:09;;;;;;;24.55;14.25;;;;;;;;;;10316475;28;20082;-60
2024/02/04 20:58:10;;;;;;;20.15;12.52;;;;;;;;;;10326106;28;20030;-61
2024/02/04 21:03:11;;;;;;;21.23;12.68;;;;;;;;;;10330466;28;20034;-60
2024/02/04 21:08:11;;;;;;;20.67;12.30;;;;;;;;;;10316972;28;20364;-60
2024/02/04 21:13:12;;;;;;;21.48;12.02;;;;;;;;;;10310086;28;20031;-60
2024/02/04 21:18:12;;;;;;;24.67;14.55;;;;;;;;;;10317207;28;20117;-60
2024/02/04 21:23:15;;;;;;;19.30;14.18;;;;;;;;;;10327929;28;20029;-60
2024/02/04 21:28:15;;;;;;;19.65;14.25;;;;;;;;;;10327777;28;20041;-59
2024/02/04 21:33:16;;;;;;;24.00;16.63;;;;;;;;;;10328243;28;20394;-59
2024/02/04 21:38:17;;;;;;;30.73;17.58;;;;;;;;;;10327874;28;20050;-60
2024/02/04 21:43:17;;;;;;;26.35;17.85;;;;;;;;;;10324308;28;20022;-60
2024/02/04 21:48:20;;;;;;;23.92;17.17;;;;;;;;;;10326184;28;20035;-60
2024/02/04 21:53:21;;;;;;;25.67;17.83;;;;;;;;;;10327220;28;20034;-60
2024/02/04 21:58:22;;;;;;;38.00;17.60;;;;;;;;;;10316186;28;20121;-60
2024/02/04 22:03:22;;;;;;;27.95;19.02;;;;;;;;;;10307426;28;20046;-60
2024/02/04 22:08:23;;;;;;;25.52;18.33;;;;;;;;;;10310910;28;20023;-60
2024/02/04 22:13:24;;;;;;;31.48;18.08;;;;;;;;;;10316091;28;20023;-60
2024/02/04 22:18:24;;;;;;;34.65;19.15;;;;;;;;;;10299850;28;20030;-55
2024/02/04 22:23:25;;;;;;;35.67;18.75;;;;;;;;;;10323538;28;20025;-58
2024/02/04 22:28:25;;;;;;;30.92;17.45;;;;;;;;;;10324360;28;20030;-59
2024/02/04 22:33:27;;;;;;;32.67;17.58;;;;;;;;;;10327266;28;20037;-59
2024/02/04 22:38:28;;;;;;;34.05;17.70;;;;;;;;;;10324750;28;20244;-60
2024/02/04 22:43:29;;;;;;;32.25;18.02;;;;;;;;;;10322620;28;20245;-60
2024/02/04 22:48:30;;;;;;;35.33;16.65;;;;;;;;;;10325996;28;20026;-61
2024/02/04 22:53:31;;;;;;;28.73;16.30;;;;;;;;;;10325756;28;20039;-60
2024/02/04 22:58:32;;;;;;;26.27;16.00;;;;;;;;;;10324926;28;20457;-59
2024/02/04 23:03:32;;;;;;;33.63;16.50;;;;;;;;;;10325738;28;20026;-60
2024/02/04 23:08:33;;;;;;;23.60;15.40;;;;;;;;;;10316784;28;20496;-59
2024/02/04 23:13:34;;;;;;;28.13;16.15;;;;;;;;;;10324114;28;20034;-61
2024/02/04 23:18:35;;;;;;;23.85;15.20;;;;;;;;;;10326268;28;20080;-60
2024/02/04 23:23:36;;;;;;;28.40;16.00;;;;;;;;;;10333006;28;20539;-60
2024/02/04 23:28:37;;;;;;;26.70;15.38;;;;;;;;;;10318036;28;20030;-60
2024/02/04 23:33:37;;;;;;;28.10;15.90;;;;;;;;;;10323028;28;20022;-60
2024/02/04 23:38:38;;;;;;;23.58;15.48;;;;;;;;;;10321639;28;20050;-60
2024/02/04 23:43:39;;;;;;;31.70;14.75;;;;;;;;;;10316479;28;20034;-60
2024/02/04 23:48:39;;;;;;;26.27;14.80;;;;;;;;;;10324464;28;20030;-60
2024/02/04 23:53:40;;;;;;;22.20;14.48;;;;;;;;;;10323722;28;20041;-60
2024/02/04 23:58:40;;;;;;;25.27;14.13;;;;;;;;;;10315847;28;20037;-60
